createdAt,value
2018-08-30T00:02:00.073Z,14.57
2018-08-30T00:04:28.544Z,14.60
2018-08-30T00:06:57.090Z,14.58
2018-08-30T00:09:25.601Z,14.56
2018-08-30T00:11:54.057Z,14.58
2018-08-30T00:14:22.548Z,14.57
2018-08-30T00:16:51.048Z,14.59
2018-08-30T00:19:19.584Z,14.54
2018-08-30T00:21:48.085Z,14.56
2018-08-30T00:24:16.642Z,14.58
2018-08-30T00:26:45.181Z,14.58
2018-08-30T00:29:13.651Z,14.61
2018-08-30T00:31:42.186Z,14.58
2018-08-30T00:34:10.674Z,14.56
2018-08-30T00:36:39.260Z,14.51
2018-08-30T00:39:09.437Z,14.53
2018-08-30T00:41:38.195Z,14.51
2018-08-30T00:44:13.095Z,14.51
2018-08-30T00:46:41.626Z,14.52
2018-08-30T00:49:10.138Z,14.57
2018-08-30T00:51:38.637Z,14.51
2018-08-30T00:54:07.105Z,14.50
2018-08-30T00:56:35.604Z,14.48
2018-08-30T00:59:04.295Z,14.50
2018-08-30T01:01:32.773Z,14.50
2018-08-30T01:04:01.284Z,14.52
2018-08-30T01:06:29.839Z,14.57
2018-08-30T01:08:58.345Z,14.53
2018-08-30T01:11:26.844Z,14.52
2018-08-30T01:13:55.375Z,14.55
2018-08-30T01:16:24.129Z,14.55
2018-08-30T01:18:52.671Z,14.54
2018-08-30T01:21:21.258Z,14.56
2018-08-30T01:23:49.778Z,14.60
2018-08-30T01:26:18.409Z,14.66
2018-08-30T01:28:46.889Z,14.66
2018-08-30T01:31:15.478Z,14.63
2018-08-30T01:33:44.194Z,14.58
2018-08-30T01:36:12.694Z,14.60
2018-08-30T01:38:41.213Z,14.61
2018-08-30T01:41:09.765Z,14.55
2018-08-30T01:43:38.270Z,14.60
2018-08-30T01:46:06.873Z,14.58
2018-08-30T01:48:35.401Z,14.58
2018-08-30T01:51:03.914Z,14.57
2018-08-30T01:53:32.480Z,14.59
2018-08-30T01:56:01.055Z,14.62
2018-08-30T01:58:29.581Z,14.61
2018-08-30T02:00:58.089Z,14.60
2018-08-30T02:03:26.700Z,14.60
2018-08-30T02:05:55.331Z,14.61
2018-08-30T02:08:23.849Z,14.67
2018-08-30T02:10:52.340Z,14.64
2018-08-30T02:13:20.899Z,14.65
2018-08-30T02:15:49.580Z,14.64
2018-08-30T02:18:18.062Z,14.63
2018-08-30T02:20:46.562Z,14.62
2018-08-30T02:23:15.112Z,14.63
2018-08-30T02:25:43.723Z,14.61
2018-08-30T02:28:12.252Z,14.62
2018-08-30T02:30:40.819Z,14.59
2018-08-30T02:33:09.466Z,14.56
2018-08-30T02:35:38.107Z,14.52
2018-08-30T02:38:06.658Z,14.52
2018-08-30T02:40:35.166Z,14.49
2018-08-30T02:43:03.802Z,14.47
2018-08-30T02:45:32.435Z,14.45
2018-08-30T02:48:01.010Z,14.45
2018-08-30T02:50:29.549Z,14.44
2018-08-30T02:52:58.073Z,14.44
2018-08-30T02:55:26.597Z,14.43
2018-08-30T02:57:55.530Z,14.44
2018-08-30T03:00:24.482Z,14.44
2018-08-30T03:02:53.038Z,14.47
2018-08-30T03:05:21.565Z,14.49
2018-08-30T03:07:50.055Z,14.48
2018-08-30T03:10:18.589Z,14.51
2018-08-30T03:12:47.162Z,14.51
2018-08-30T03:15:16.290Z,14.47
2018-08-30T03:17:44.773Z,14.52
2018-08-30T03:20:14.365Z,14.48
2018-08-30T03:22:43.187Z,14.48
2018-08-30T03:25:11.810Z,14.43
2018-08-30T03:27:40.265Z,14.40
2018-08-30T03:30:09.215Z,14.37
2018-08-30T03:32:37.699Z,14.34
2018-08-30T03:35:06.209Z,14.34
2018-08-30T03:37:34.764Z,14.31
2018-08-30T03:40:03.334Z,14.28
2018-08-30T03:42:31.896Z,14.25
2018-08-30T03:45:00.386Z,14.23
2018-08-30T03:47:28.922Z,14.25
2018-08-30T03:49:57.455Z,14.28
2018-08-30T03:52:26.122Z,14.28
2018-08-30T03:54:54.650Z,14.24
2018-08-30T03:57:23.197Z,14.24
2018-08-30T03:59:51.788Z,14.22
2018-08-30T04:02:20.303Z,14.23
2018-08-30T04:04:48.858Z,14.16
2018-08-30T04:07:17.522Z,14.12
2018-08-30T04:09:46.057Z,14.09
2018-08-30T04:12:14.659Z,14.12
2018-08-30T04:14:43.179Z,14.09
2018-08-30T04:17:11.735Z,14.07
2018-08-30T04:19:40.348Z,14.11
2018-08-30T04:22:08.993Z,14.12
2018-08-30T04:24:37.390Z,14.09
2018-08-30T04:27:06.102Z,14.00
2018-08-30T04:29:34.617Z,13.94
2018-08-30T04:32:03.381Z,13.96
2018-08-30T04:34:31.885Z,13.93
2018-08-30T04:37:00.429Z,13.94
2018-08-30T04:39:28.952Z,13.92
2018-08-30T04:41:57.493Z,13.95
2018-08-30T04:44:26.037Z,13.99
2018-08-30T04:46:54.513Z,13.97
2018-08-30T04:49:23.041Z,13.93
2018-08-30T04:51:51.620Z,13.95
2018-08-30T04:54:20.174Z,13.98
2018-08-30T04:56:48.697Z,14.02
2018-08-30T04:59:17.207Z,14.06
2018-08-30T05:01:52.630Z,14.05
2018-08-30T05:04:21.254Z,14.07
2018-08-30T05:06:49.794Z,14.07
2018-08-30T05:09:18.292Z,14.03
2018-08-30T05:11:46.773Z,14.03
2018-08-30T05:14:15.314Z,14.00
2018-08-30T05:16:44.090Z,14.01
2018-08-30T05:19:12.699Z,13.99
2018-08-30T05:21:41.218Z,14.00
2018-08-30T05:24:09.740Z,14.06
2018-08-30T05:26:38.263Z,14.12
2018-08-30T05:29:06.794Z,14.11
2018-08-30T05:31:35.476Z,14.13
2018-08-30T05:34:03.981Z,14.21
2018-08-30T05:36:32.555Z,14.20
2018-08-30T05:39:01.115Z,14.34
2018-08-30T05:41:29.657Z,14.29
2018-08-30T05:43:58.548Z,14.34
2018-08-30T05:46:27.042Z,14.43
2018-08-30T05:48:55.551Z,14.44
2018-08-30T05:51:24.088Z,14.51
2018-08-30T05:53:52.557Z,14.55
2018-08-30T05:56:21.522Z,14.61
2018-08-30T05:58:50.056Z,14.60
2018-08-30T06:01:18.598Z,14.59
2018-08-30T06:03:47.118Z,14.68
2018-08-30T06:06:15.630Z,14.76
2018-08-30T06:08:44.154Z,14.72
2018-08-30T06:11:12.748Z,14.83
2018-08-30T06:13:41.358Z,14.84
2018-08-30T06:16:09.999Z,14.98
2018-08-30T06:18:38.518Z,15.07
2018-08-30T06:21:07.061Z,14.98
2018-08-30T06:23:36.261Z,14.99
2018-08-30T06:26:04.826Z,14.97
2018-08-30T06:28:34.768Z,14.87
2018-08-30T06:31:03.331Z,14.83
2018-08-30T06:33:31.870Z,14.98
2018-08-30T06:36:00.473Z,14.90
2018-08-30T06:38:29.172Z,14.92
2018-08-30T06:40:57.727Z,15.03
2018-08-30T06:43:26.285Z,15.00
2018-08-30T06:45:54.819Z,15.02
2018-08-30T06:48:23.396Z,15.05
2018-08-30T06:50:51.934Z,15.08
2018-08-30T06:53:20.463Z,15.17
2018-08-30T06:55:48.987Z,15.14
2018-08-30T06:58:17.583Z,15.20
2018-08-30T07:00:46.068Z,15.30
2018-08-30T07:03:14.559Z,15.33
2018-08-30T07:05:43.102Z,15.43
2018-08-30T07:08:11.760Z,15.48
2018-08-30T07:10:40.375Z,15.51
2018-08-30T07:13:08.974Z,15.56
2018-08-30T07:15:37.626Z,15.51
2018-08-30T07:18:07.140Z,15.71
2018-08-30T07:20:35.669Z,15.81
2018-08-30T07:23:04.314Z,15.86
2018-08-30T07:25:32.850Z,15.75
2018-08-30T07:28:01.801Z,15.88
2018-08-30T07:30:30.307Z,15.94
2018-08-30T07:32:58.778Z,15.93
2018-08-30T07:35:27.364Z,16.04
2018-08-30T07:37:55.878Z,16.04
2018-08-30T07:40:24.635Z,16.00
2018-08-30T07:42:53.135Z,15.97
2018-08-30T07:45:21.609Z,16.14
2018-08-30T07:47:50.565Z,16.19
2018-08-30T07:50:19.094Z,16.21
2018-08-30T07:52:47.722Z,16.30
2018-08-30T07:55:16.397Z,16.38
2018-08-30T07:57:44.890Z,16.41
2018-08-30T08:00:13.379Z,16.42
2018-08-30T08:02:42.000Z,16.38
2018-08-30T08:05:10.552Z,16.47
2018-08-30T08:07:39.202Z,16.66
2018-08-30T08:10:07.846Z,16.78
2018-08-30T08:12:36.371Z,16.86
2018-08-30T08:15:04.927Z,17.03
2018-08-30T08:17:33.577Z,17.20
2018-08-30T08:20:02.078Z,17.41
2018-08-30T08:22:30.641Z,17.53
2018-08-30T08:24:59.219Z,17.58
2018-08-30T08:27:27.998Z,17.73
2018-08-30T08:29:59.372Z,17.88
2018-08-30T08:32:27.974Z,17.97
2018-08-30T08:34:56.598Z,18.25
2018-08-30T08:37:25.104Z,18.04
2018-08-30T08:39:53.641Z,18.37
2018-08-30T08:42:22.134Z,18.64
2018-08-30T08:44:50.681Z,18.32
2018-08-30T08:47:19.238Z,18.55
2018-08-30T08:49:47.785Z,18.69
2018-08-30T08:52:16.346Z,18.93
2018-08-30T08:54:44.898Z,18.80
2018-08-30T08:57:13.386Z,18.30
2018-08-30T08:59:41.969Z,18.58
2018-08-30T09:02:10.567Z,18.76
2018-08-30T09:04:39.404Z,18.61
2018-08-30T09:07:07.942Z,18.98
2018-08-30T09:09:36.525Z,19.18
2018-08-30T09:12:05.178Z,19.16
2018-08-30T09:14:33.781Z,18.96
2018-08-30T09:17:02.454Z,18.73
2018-08-30T09:19:31.062Z,19.11
2018-08-30T09:21:59.782Z,19.58
2018-08-30T09:24:28.264Z,19.47
2018-08-30T09:26:56.907Z,19.41
2018-08-30T09:29:25.423Z,19.26
2018-08-30T09:31:53.915Z,19.18
2018-08-30T09:34:22.702Z,19.24
2018-08-30T09:36:52.115Z,19.00
2018-08-30T09:39:20.655Z,19.29
2018-08-30T09:41:49.154Z,19.67
2018-08-30T09:44:17.659Z,19.83
2018-08-30T09:46:46.536Z,20.33
2018-08-30T09:49:15.067Z,20.29
2018-08-30T09:51:43.554Z,20.18
2018-08-30T09:54:12.050Z,20.37
2018-08-30T09:56:40.675Z,19.93
2018-08-30T09:59:09.223Z,19.21
2018-08-30T10:01:43.011Z,18.86
2018-08-30T10:04:11.590Z,19.09
2018-08-30T10:06:40.270Z,19.88
2018-08-30T10:09:10.150Z,20.21
2018-08-30T10:11:39.551Z,20.09
2018-08-30T10:14:08.233Z,19.96
2018-08-30T10:16:36.942Z,20.20
2018-08-30T10:19:05.458Z,20.45
2018-08-30T10:21:34.070Z,19.91
2018-08-30T10:24:02.532Z,20.12
2018-08-30T10:26:31.088Z,20.46
2018-08-30T10:28:59.678Z,21.08
2018-08-30T10:31:28.271Z,21.36
2018-08-30T10:33:56.815Z,20.97
2018-08-30T10:36:25.333Z,21.07
2018-08-30T10:38:53.882Z,20.95
2018-08-30T10:41:22.426Z,20.66
2018-08-30T10:43:51.058Z,20.11
2018-08-30T10:46:19.575Z,20.17
2018-08-30T10:48:48.161Z,19.02
2018-08-30T10:51:16.674Z,17.82
2018-08-30T10:53:45.212Z,17.17
2018-08-30T10:56:14.771Z,16.95
2018-08-30T10:58:43.348Z,16.95
2018-08-30T11:01:11.887Z,17.13
2018-08-30T11:03:40.555Z,17.25
2018-08-30T11:06:09.284Z,17.54
2018-08-30T11:08:37.789Z,17.59
2018-08-30T11:11:06.359Z,17.55
2018-08-30T11:13:35.108Z,17.71
2018-08-30T11:16:03.653Z,17.57
2018-08-30T11:18:32.162Z,17.59
2018-08-30T11:21:00.658Z,17.50
2018-08-30T11:23:29.258Z,17.58
2018-08-30T11:25:57.783Z,17.63
2018-08-30T11:28:26.302Z,17.83
2018-08-30T11:30:54.855Z,17.84
2018-08-30T11:33:23.399Z,17.78
2018-08-30T11:35:51.906Z,18.05
2018-08-30T11:38:20.470Z,18.07
2018-08-30T11:40:48.994Z,18.11
2018-08-30T11:43:17.765Z,18.20
2018-08-30T11:45:47.006Z,18.42
2018-08-30T11:48:15.510Z,18.66
2018-08-30T11:50:44.057Z,18.80
2018-08-30T11:53:12.562Z,18.69
2018-08-30T11:55:41.258Z,17.88
2018-08-30T11:58:09.971Z,16.94
2018-08-30T12:00:39.420Z,16.28
2018-08-30T12:03:07.998Z,15.79
2018-08-30T12:05:36.565Z,15.46
2018-08-30T12:08:06.139Z,15.33
2018-08-30T12:10:37.031Z,15.25
2018-08-30T12:13:05.610Z,15.26
2018-08-30T12:15:34.226Z,15.14
2018-08-30T12:18:03.146Z,15.21
2018-08-30T12:20:31.724Z,15.32
2018-08-30T12:23:00.437Z,15.53
2018-08-30T12:25:28.979Z,15.58
2018-08-30T12:27:57.569Z,15.72
2018-08-30T12:30:26.113Z,15.76
2018-08-30T12:32:54.645Z,15.82
2018-08-30T12:35:23.384Z,16.01
2018-08-30T12:37:51.877Z,16.00
2018-08-30T12:40:20.665Z,16.00
2018-08-30T12:42:49.352Z,15.98
2018-08-30T12:45:19.344Z,15.91
2018-08-30T12:47:48.134Z,15.90
2018-08-30T12:50:16.776Z,15.82
2018-08-30T12:52:45.291Z,15.66
2018-08-30T12:55:13.855Z,15.59
2018-08-30T12:57:42.477Z,15.73
2018-08-30T13:00:11.875Z,15.85
2018-08-30T13:02:40.389Z,15.80
2018-08-30T13:05:08.969Z,15.85
2018-08-30T13:07:37.620Z,16.08
2018-08-30T13:10:06.368Z,16.11
2018-08-30T13:12:34.917Z,16.17
2018-08-30T13:15:03.670Z,16.41
2018-08-30T13:17:33.072Z,16.73
2018-08-30T13:20:01.831Z,16.78
2018-08-30T13:22:30.306Z,16.88
2018-08-30T13:24:59.413Z,17.03
2018-08-30T13:27:27.705Z,17.05
2018-08-30T13:29:56.474Z,17.37
2018-08-30T13:32:25.182Z,17.75
2018-08-30T13:34:54.102Z,18.14
2018-08-30T13:37:22.706Z,18.31
2018-08-30T13:39:51.240Z,18.23
2018-08-30T13:42:20.618Z,18.09
2018-08-30T13:44:49.180Z,18.12
2018-08-30T13:47:17.671Z,17.99
2018-08-30T13:49:46.098Z,18.28
2018-08-30T13:52:15.094Z,18.26
2018-08-30T13:54:43.677Z,18.29
2018-08-30T13:57:14.157Z,18.39
2018-08-30T13:59:43.003Z,18.54
2018-08-30T14:02:17.939Z,18.45
2018-08-30T14:04:46.388Z,18.35
2018-08-30T14:07:14.820Z,18.45
2018-08-30T14:09:43.545Z,18.19
2018-08-30T14:12:12.273Z,18.11
2018-08-30T14:14:40.621Z,18.02
2018-08-30T14:17:08.874Z,18.02
2018-08-30T14:19:37.535Z,17.87
2018-08-30T14:22:06.067Z,18.03
2018-08-30T14:24:34.814Z,18.16
2018-08-30T14:27:03.849Z,18.20
2018-08-30T14:29:32.186Z,18.03
2018-08-30T14:32:00.666Z,18.07
2018-08-30T14:34:29.187Z,18.19
2018-08-30T14:36:57.924Z,18.30
2018-08-30T14:39:26.554Z,18.16
2018-08-30T14:41:55.150Z,18.09
2018-08-30T14:44:23.966Z,17.77
2018-08-30T14:46:52.474Z,17.69
2018-08-30T14:49:21.016Z,17.78
2018-08-30T14:51:49.579Z,17.81
2018-08-30T14:54:18.223Z,17.88
2018-08-30T14:56:46.735Z,17.94
2018-08-30T14:59:15.278Z,18.09
2018-08-30T15:01:43.898Z,18.21
2018-08-30T15:04:12.406Z,18.24
2018-08-30T15:06:40.874Z,18.31
2018-08-30T15:09:09.721Z,18.30
2018-08-30T15:11:38.233Z,18.30
2018-08-30T15:14:07.114Z,18.13
2018-08-30T15:16:35.630Z,17.92
2018-08-30T15:19:04.322Z,17.95
2018-08-30T15:21:33.043Z,17.88
2018-08-30T15:24:01.558Z,17.66
2018-08-30T15:26:30.022Z,17.63
2018-08-30T15:28:58.542Z,17.54
2018-08-30T15:31:28.525Z,17.43
2018-08-30T15:33:57.786Z,17.36
2018-08-30T15:36:26.286Z,17.23
2018-08-30T15:38:54.805Z,17.22
2018-08-30T15:41:23.318Z,17.34
2018-08-30T15:43:51.996Z,17.49
2018-08-30T15:46:20.559Z,17.72
2018-08-30T15:48:49.160Z,17.98
2018-08-30T15:51:18.098Z,18.12
2018-08-30T15:53:46.484Z,18.23
2018-08-30T15:56:15.149Z,18.31
2018-08-30T15:58:43.614Z,18.05
2018-08-30T16:01:12.132Z,18.02
2018-08-30T16:03:40.679Z,18.27
2018-08-30T16:06:09.290Z,18.41
2018-08-30T16:08:37.818Z,18.23
2018-08-30T16:11:06.386Z,17.94
2018-08-30T16:13:34.890Z,17.78
2018-08-30T16:16:03.463Z,17.83
2018-08-30T16:18:32.638Z,17.87
2018-08-30T16:21:01.373Z,17.86
2018-08-30T16:23:32.410Z,17.80
2018-08-30T16:26:00.891Z,17.68
2018-08-30T16:28:30.376Z,17.66
2018-08-30T16:30:59.261Z,17.70
2018-08-30T16:33:27.947Z,17.76
2018-08-30T16:35:56.897Z,17.84
2018-08-30T16:38:25.545Z,17.83
2018-08-30T16:40:54.219Z,17.92
2018-08-30T16:43:22.961Z,17.90
2018-08-30T16:45:51.558Z,17.76
2018-08-30T16:48:20.014Z,17.70
2018-08-30T16:50:48.530Z,17.79
2018-08-30T16:53:17.108Z,17.75
2018-08-30T16:55:45.592Z,17.64
2018-08-30T16:58:14.601Z,17.51
2018-08-30T17:00:43.160Z,17.37
2018-08-30T17:03:11.725Z,17.29
2018-08-30T17:05:40.314Z,17.14
2018-08-30T17:08:08.795Z,17.11
2018-08-30T17:10:37.307Z,17.04
2018-08-30T17:13:06.215Z,17.04
2018-08-30T17:15:34.738Z,17.00
2018-08-30T17:18:03.268Z,16.99
2018-08-30T17:20:41.498Z,16.98
2018-08-30T17:23:10.335Z,16.93
2018-08-30T17:25:38.858Z,16.88
2018-08-30T17:28:07.346Z,16.83
2018-08-30T17:30:35.978Z,16.84
2018-08-30T17:33:04.575Z,16.85
2018-08-30T17:35:33.212Z,16.82
2018-08-30T17:38:01.808Z,16.79
2018-08-30T17:40:30.309Z,16.69
2018-08-30T17:42:58.930Z,16.57
2018-08-30T17:45:27.653Z,16.41
2018-08-30T17:47:56.250Z,16.34
2018-08-30T17:50:24.849Z,16.24
2018-08-30T17:52:53.311Z,16.11
2018-08-30T17:55:22.038Z,15.96
2018-08-30T17:57:50.561Z,15.89
2018-08-30T18:00:19.360Z,15.85
2018-08-30T18:02:48.164Z,15.76
2018-08-30T18:05:16.857Z,15.63
2018-08-30T18:07:45.776Z,15.55
2018-08-30T18:10:14.368Z,15.53
2018-08-30T18:12:42.850Z,15.48
2018-08-30T18:15:13.233Z,15.44
2018-08-30T18:17:41.800Z,15.34
2018-08-30T18:20:10.374Z,15.20
2018-08-30T18:22:38.965Z,15.08
2018-08-30T18:25:08.419Z,14.95
2018-08-30T18:27:37.600Z,14.84
2018-08-30T18:30:07.475Z,14.69
2018-08-30T18:32:36.098Z,14.59
2018-08-30T18:35:04.783Z,14.53
2018-08-30T18:37:33.325Z,14.38
2018-08-30T18:40:01.831Z,14.23
2018-08-30T18:42:30.493Z,14.01
2018-08-30T18:44:59.040Z,13.74
2018-08-30T18:47:27.704Z,13.71
2018-08-30T18:49:56.576Z,13.53
2018-08-30T18:52:25.380Z,13.33
2018-08-30T18:54:54.633Z,13.22
2018-08-30T18:57:23.648Z,12.97
2018-08-30T18:59:52.763Z,12.98
2018-08-30T19:02:21.716Z,12.96
2018-08-30T19:04:50.749Z,12.97
2018-08-30T19:07:19.896Z,12.93
2018-08-30T19:09:49.043Z,12.74
2018-08-30T19:12:18.147Z,12.77
2018-08-30T19:14:47.104Z,12.71
2018-08-30T19:17:21.341Z,12.53
2018-08-30T19:19:50.399Z,12.58
2018-08-30T19:22:19.772Z,12.61
2018-08-30T19:24:54.341Z,12.67
2018-08-30T19:27:23.712Z,12.60
2018-08-30T19:29:58.238Z,12.55
2018-08-30T19:32:27.904Z,12.52
2018-08-30T19:35:01.103Z,12.51
2018-08-30T19:37:30.119Z,12.52
2018-08-30T19:39:58.895Z,12.46
2018-08-30T19:42:27.619Z,12.44
2018-08-30T19:44:58.387Z,12.43
2018-08-30T19:47:27.012Z,12.39
2018-08-30T19:49:55.673Z,12.36
2018-08-30T19:52:24.218Z,12.27
2018-08-30T19:54:52.991Z,12.15
2018-08-30T19:57:21.452Z,12.09
2018-08-30T19:59:50.019Z,12.02
2018-08-30T20:02:18.559Z,12.01
2018-08-30T20:04:47.040Z,11.96
2018-08-30T20:07:16.053Z,11.98
2018-08-30T20:09:44.668Z,11.96
2018-08-30T20:12:13.182Z,11.84
2018-08-30T20:14:41.833Z,11.74
2018-08-30T20:17:10.437Z,11.78
2018-08-30T20:19:39.150Z,11.71
2018-08-30T20:22:10.320Z,11.68
2018-08-30T20:24:38.787Z,11.65
2018-08-30T20:27:07.594Z,11.55
2018-08-30T20:29:36.139Z,11.43
2018-08-30T20:32:04.701Z,11.34
2018-08-30T20:34:33.371Z,11.30
2018-08-30T20:37:02.095Z,11.19
2018-08-30T20:39:30.652Z,11.13
2018-08-30T20:41:59.306Z,11.10
2018-08-30T20:44:27.801Z,11.22
2018-08-30T20:46:56.289Z,11.26
2018-08-30T20:49:25.029Z,11.15
2018-08-30T20:51:53.610Z,11.24
2018-08-30T20:54:22.147Z,11.12
2018-08-30T20:56:50.734Z,11.06
2018-08-30T20:59:19.271Z,11.09
2018-08-30T21:01:47.833Z,11.13
2018-08-30T21:04:16.385Z,11.14
2018-08-30T21:06:45.074Z,11.18
2018-08-30T21:09:13.604Z,11.15
2018-08-30T21:11:42.456Z,11.10
2018-08-30T21:14:10.954Z,11.02
2018-08-30T21:16:39.439Z,10.99
2018-08-30T21:19:07.948Z,11.07
2018-08-30T21:21:36.527Z,11.12
2018-08-30T21:24:05.422Z,11.16
2018-08-30T21:26:33.922Z,11.12
2018-08-30T21:29:02.579Z,11.04
2018-08-30T21:31:31.553Z,11.01
2018-08-30T21:34:00.054Z,10.96
2018-08-30T21:36:28.563Z,10.91
2018-08-30T21:38:57.133Z,10.94
2018-08-30T21:41:25.594Z,10.90
2018-08-30T21:43:54.093Z,10.83
2018-08-30T21:46:22.686Z,10.77
2018-08-30T21:48:51.596Z,10.71
2018-08-30T21:51:20.074Z,10.77
2018-08-30T21:53:48.636Z,10.73
2018-08-30T21:56:17.151Z,10.70
2018-08-30T21:58:45.845Z,10.66
2018-08-30T22:01:14.329Z,10.67
2018-08-30T22:03:42.860Z,10.62
2018-08-30T22:06:11.366Z,10.65
2018-08-30T22:08:39.973Z,10.60
2018-08-30T22:11:08.502Z,10.52
2018-08-30T22:13:36.982Z,10.49
2018-08-30T22:16:05.563Z,10.44
2018-08-30T22:18:34.066Z,10.36
2018-08-30T22:21:02.643Z,10.37
2018-08-30T22:23:31.205Z,10.35
2018-08-30T22:25:59.727Z,10.32
2018-08-30T22:28:28.374Z,10.30
2018-08-30T22:30:56.878Z,10.07
2018-08-30T22:33:25.605Z,10.02
2018-08-30T22:35:54.099Z,10.05
2018-08-30T22:38:22.628Z,10.05
2018-08-30T22:40:51.234Z,10.07
2018-08-30T22:43:19.720Z,10.08
2018-08-30T22:45:48.226Z,10.08
2018-08-30T22:48:16.698Z,10.00
2018-08-30T22:50:45.341Z,9.96
2018-08-30T22:53:13.843Z,9.93
2018-08-30T22:55:42.687Z,9.97
2018-08-30T22:58:11.175Z,9.84
2018-08-30T23:00:39.839Z,9.73
2018-08-30T23:03:08.549Z,9.84
2018-08-30T23:05:37.037Z,9.87
2018-08-30T23:08:05.609Z,9.87
2018-08-30T23:10:34.102Z,9.89
2018-08-30T23:13:02.641Z,9.89
2018-08-30T23:15:31.161Z,9.84
2018-08-30T23:17:59.640Z,9.87
2018-08-30T23:20:28.163Z,9.85
2018-08-30T23:22:56.628Z,9.81
2018-08-30T23:25:25.099Z,9.81
2018-08-30T23:27:53.609Z,9.84
2018-08-30T23:30:22.107Z,9.82
2018-08-30T23:32:50.666Z,9.85
2018-08-30T23:35:19.121Z,9.91
2018-08-30T23:37:47.661Z,9.98
2018-08-30T23:40:16.316Z,10.01
2018-08-30T23:42:44.809Z,9.97
2018-08-30T23:45:13.371Z,9.90
2018-08-30T23:47:41.967Z,9.89
2018-08-30T23:50:10.466Z,9.85
2018-08-30T23:52:39.195Z,9.77
2018-08-30T23:55:07.882Z,9.70
2018-08-30T23:57:36.908Z,9.69
